sensor_id;sensor_type;location;lat;lon;timestamp;pressure;altitude;pressure_sealevel;temperature;humidity
17521;BME280;8878;-33.370;-70.552;2023-01-28T00:01:51;91923.44;;;30.73;26.77
17521;BME280;8878;-33.370;-70.552;2023-01-28T00:04:22;91920.75;;;30.63;26.96
17521;BME280;8878;-33.370;-70.552;2023-01-28T00:06:52;91925.84;;;30.50;26.88
17521;BME280;8878;-33.370;-70.552;2023-01-28T00:09:21;91924.75;;;30.26;26.04
17521;BME280;8878;-33.370;-70.552;2023-01-28T00:11:51;91920.53;;;29.90;26.28
17521;BME280;8878;-33.370;-70.552;2023-01-28T00:14:20;91920.56;;;29.54;27.24
17521;BME280;8878;-33.370;-70.552;2023-01-28T00:16:49;91928.59;;;28.98;26.95
17521;BME280;8878;-33.370;-70.552;2023-01-28T00:19:18;91925.41;;;28.74;27.65
17521;BME280;8878;-33.370;-70.552;2023-01-28T00:21:49;91934.84;;;29.12;27.39
17521;BME280;8878;-33.370;-70.552;2023-01-28T00:24:19;91937.56;;;29.23;26.60
17521;BME280;8878;-33.370;-70.552;2023-01-28T00:26:48;91946.50;;;29.27;26.90
17521;BME280;8878;-33.370;-70.552;2023-01-28T00:29:18;91937.16;;;29.21;27.08
17521;BME280;8878;-33.370;-70.552;2023-01-28T00:31:47;91939.66;;;28.47;28.08
17521;BME280;8878;-33.370;-70.552;2023-01-28T00:34:18;91941.47;;;28.28;28.01
17521;BME280;8878;-33.370;-70.552;2023-01-28T00:36:49;91939.00;;;27.98;28.81
17521;BME280;8878;-33.370;-70.552;2023-01-28T00:39:23;91955.88;;;28.36;28.10
17521;BME280;8878;-33.370;-70.552;2023-01-28T00:41:53;91946.81;;;28.11;28.27
17521;BME280;8878;-33.370;-70.552;2023-01-28T00:44:22;91943.78;;;28.23;28.15
17521;BME280;8878;-33.370;-70.552;2023-01-28T00:46:52;91946.50;;;28.23;28.45
17521;BME280;8878;-33.370;-70.552;2023-01-28T00:49:21;91955.88;;;28.32;28.22
17521;BME280;8878;-33.370;-70.552;2023-01-28T00:51:52;91949.31;;;28.44;27.96
17521;BME280;8878;-33.370;-70.552;2023-01-28T00:54:22;91949.88;;;28.09;28.58
17521;BME280;8878;-33.370;-70.552;2023-01-28T00:56:51;91947.91;;;28.02;28.43
17521;BME280;8878;-33.370;-70.552;2023-01-28T00:59:22;91949.19;;;27.20;29.59
17521;BME280;8878;-33.370;-70.552;2023-01-28T01:01:51;91956.69;;;26.97;29.44
17521;BME280;8878;-33.370;-70.552;2023-01-28T01:04:20;91951.56;;;27.25;29.68
17521;BME280;8878;-33.370;-70.552;2023-01-28T01:07:02;91957.13;;;26.99;29.62
17521;BME280;8878;-33.370;-70.552;2023-01-28T01:09:32;91952.41;;;27.33;29.77
17521;BME280;8878;-33.370;-70.552;2023-01-28T01:12:01;91957.19;;;27.50;29.66
17521;BME280;8878;-33.370;-70.552;2023-01-28T01:14:30;91953.47;;;27.65;29.13
17521;BME280;8878;-33.370;-70.552;2023-01-28T01:17:00;91964.66;;;27.64;28.73
17521;BME280;8878;-33.370;-70.552;2023-01-28T01:19:29;91964.28;;;27.62;30.58
17521;BME280;8878;-33.370;-70.552;2023-01-28T01:21:58;91959.66;;;27.62;30.86
17521;BME280;8878;-33.370;-70.552;2023-01-28T01:24:29;91957.25;;;27.57;30.86
17521;BME280;8878;-33.370;-70.552;2023-01-28T01:26:59;91965.38;;;27.54;30.58
17521;BME280;8878;-33.370;-70.552;2023-01-28T01:29:29;91952.88;;;27.46;30.96
17521;BME280;8878;-33.370;-70.552;2023-01-28T01:31:59;91951.25;;;27.34;32.65
17521;BME280;8878;-33.370;-70.552;2023-01-28T01:34:28;91951.13;;;27.23;32.22
17521;BME280;8878;-33.370;-70.552;2023-01-28T01:36:58;91958.53;;;27.26;32.19
17521;BME280;8878;-33.370;-70.552;2023-01-28T01:39:31;91962.25;;;27.11;32.85
17521;BME280;8878;-33.370;-70.552;2023-01-28T01:42:00;91961.44;;;27.07;32.73
17521;BME280;8878;-33.370;-70.552;2023-01-28T01:44:57;91966.78;;;27.00;32.95
17521;BME280;8878;-33.370;-70.552;2023-01-28T01:47:34;91960.41;;;26.85;33.16
17521;BME280;8878;-33.370;-70.552;2023-01-28T01:50:08;91964.50;;;26.72;33.28
17521;BME280;8878;-33.370;-70.552;2023-01-28T01:52:40;91962.06;;;26.60;33.88
17521;BME280;8878;-33.370;-70.552;2023-01-28T01:55:16;91961.97;;;26.53;34.84
17521;BME280;8878;-33.370;-70.552;2023-01-28T01:57:48;91958.03;;;26.47;35.07
17521;BME280;8878;-33.370;-70.552;2023-01-28T02:00:19;91963.78;;;26.42;34.88
17521;BME280;8878;-33.370;-70.552;2023-01-28T02:02:51;91963.72;;;26.38;34.59
17521;BME280;8878;-33.370;-70.552;2023-01-28T02:05:21;91962.03;;;26.27;34.96
17521;BME280;8878;-33.370;-70.552;2023-01-28T02:07:53;91958.97;;;26.28;34.93
17521;BME280;8878;-33.370;-70.552;2023-01-28T02:10:47;91957.78;;;26.26;35.63
17521;BME280;8878;-33.370;-70.552;2023-01-28T02:13:18;91956.00;;;26.10;35.28
17521;BME280;8878;-33.370;-70.552;2023-01-28T02:15:50;91951.50;;;25.92;35.59
17521;BME280;8878;-33.370;-70.552;2023-01-28T02:18:20;91948.31;;;25.86;35.53
17521;BME280;8878;-33.370;-70.552;2023-01-28T02:21:14;91950.59;;;25.84;35.79
17521;BME280;8878;-33.370;-70.552;2023-01-28T02:27:19;91943.44;;;25.69;35.63
17521;BME280;8878;-33.370;-70.552;2023-01-28T02:29:57;91948.06;;;25.68;36.56
17521;BME280;8878;-33.370;-70.552;2023-01-28T02:32:29;91939.41;;;25.59;36.84
17521;BME280;8878;-33.370;-70.552;2023-01-28T02:35:05;91936.94;;;25.51;36.82
17521;BME280;8878;-33.370;-70.552;2023-01-28T02:37:39;91931.03;;;25.42;36.87
17521;BME280;8878;-33.370;-70.552;2023-01-28T02:40:13;91931.69;;;25.35;36.34
17521;BME280;8878;-33.370;-70.552;2023-01-28T02:42:45;91930.91;;;25.34;36.59
17521;BME280;8878;-33.370;-70.552;2023-01-28T02:45:25;91924.63;;;25.27;37.00
17521;BME280;8878;-33.370;-70.552;2023-01-28T02:48:16;91929.91;;;25.20;37.38
17521;BME280;8878;-33.370;-70.552;2023-01-28T02:50:48;91926.72;;;25.14;36.94
17521;BME280;8878;-33.370;-70.552;2023-01-28T02:53:26;91923.97;;;25.11;37.52
17521;BME280;8878;-33.370;-70.552;2023-01-28T02:56:18;91928.88;;;25.05;37.76
17521;BME280;8878;-33.370;-70.552;2023-01-28T02:59:00;91918.75;;;24.99;37.62
17521;BME280;8878;-33.370;-70.552;2023-01-28T03:01:57;91914.50;;;24.98;37.31
17521;BME280;8878;-33.370;-70.552;2023-01-28T03:04:31;91915.56;;;24.93;37.32
17521;BME280;8878;-33.370;-70.552;2023-01-28T03:07:04;91913.50;;;24.86;37.20
17521;BME280;8878;-33.370;-70.552;2023-01-28T03:09:36;91909.78;;;24.94;35.63
17521;BME280;8878;-33.370;-70.552;2023-01-28T03:12:09;91909.00;;;24.71;35.91
17521;BME280;8878;-33.370;-70.552;2023-01-28T03:14:58;91904.72;;;24.70;35.39
17521;BME280;8878;-33.370;-70.552;2023-01-28T03:17:48;91898.50;;;24.89;36.96
17521;BME280;8878;-33.370;-70.552;2023-01-28T03:20:40;91896.53;;;24.86;34.37
17521;BME280;8878;-33.370;-70.552;2023-01-28T03:23:30;91898.09;;;25.10;34.35
17521;BME280;8878;-33.370;-70.552;2023-01-28T03:26:19;91895.72;;;25.05;37.11
17521;BME280;8878;-33.370;-70.552;2023-01-28T03:29:08;91886.72;;;24.97;37.65
17521;BME280;8878;-33.370;-70.552;2023-01-28T03:31:57;91892.28;;;24.85;37.72
17521;BME280;8878;-33.370;-70.552;2023-01-28T03:34:45;91889.72;;;24.73;37.20
17521;BME280;8878;-33.370;-70.552;2023-01-28T03:37:32;91896.13;;;24.23;37.28
17521;BME280;8878;-33.370;-70.552;2023-01-28T03:40:04;91894.28;;;24.27;36.87
17521;BME280;8878;-33.370;-70.552;2023-01-28T03:42:34;91882.22;;;24.40;36.91
17521;BME280;8878;-33.370;-70.552;2023-01-28T03:45:05;91889.59;;;24.66;36.11
17521;BME280;8878;-33.370;-70.552;2023-01-28T03:47:35;91878.94;;;24.50;36.55
17521;BME280;8878;-33.370;-70.552;2023-01-28T03:50:09;91874.31;;;24.50;36.42
17521;BME280;8878;-33.370;-70.552;2023-01-28T03:52:38;91874.53;;;24.42;36.29
17521;BME280;8878;-33.370;-70.552;2023-01-28T03:55:08;91871.75;;;24.57;36.21
17521;BME280;8878;-33.370;-70.552;2023-01-28T03:57:40;91866.19;;;24.70;36.83
17521;BME280;8878;-33.370;-70.552;2023-01-28T04:00:11;91863.97;;;24.75;36.59
17521;BME280;8878;-33.370;-70.552;2023-01-28T04:02:42;91874.47;;;24.57;36.38
17521;BME280;8878;-33.370;-70.552;2023-01-28T04:05:14;91867.03;;;24.51;37.14
17521;BME280;8878;-33.370;-70.552;2023-01-28T04:07:45;91865.63;;;24.61;36.98
17521;BME280;8878;-33.370;-70.552;2023-01-28T04:10:18;91859.59;;;24.67;36.92
17521;BME280;8878;-33.370;-70.552;2023-01-28T04:12:47;91866.06;;;24.63;36.91
17521;BME280;8878;-33.370;-70.552;2023-01-28T04:15:20;91863.41;;;24.66;36.79
17521;BME280;8878;-33.370;-70.552;2023-01-28T04:17:49;91862.22;;;24.64;36.57
17521;BME280;8878;-33.370;-70.552;2023-01-28T04:20:20;91855.06;;;24.52;37.75
17521;BME280;8878;-33.370;-70.552;2023-01-28T04:22:50;91857.41;;;24.53;38.45
17521;BME280;8878;-33.370;-70.552;2023-01-28T04:25:20;91857.47;;;24.34;37.65
17521;BME280;8878;-33.370;-70.552;2023-01-28T04:27:59;91857.81;;;24.33;37.14
17521;BME280;8878;-33.370;-70.552;2023-01-28T04:30:28;91853.19;;;24.33;37.08
17521;BME280;8878;-33.370;-70.552;2023-01-28T04:32:57;91848.44;;;24.07;37.06
17521;BME280;8878;-33.370;-70.552;2023-01-28T04:35:29;91851.84;;;24.04;37.13
17521;BME280;8878;-33.370;-70.552;2023-01-28T04:38:00;91847.59;;;24.03;37.58
17521;BME280;8878;-33.370;-70.552;2023-01-28T04:40:29;91841.16;;;24.08;37.84
17521;BME280;8878;-33.370;-70.552;2023-01-28T04:42:58;91846.97;;;23.91;37.41
17521;BME280;8878;-33.370;-70.552;2023-01-28T04:45:28;91841.97;;;23.73;37.80
17521;BME280;8878;-33.370;-70.552;2023-01-28T04:47:57;91837.38;;;23.74;37.96
17521;BME280;8878;-33.370;-70.552;2023-01-28T04:50:28;91838.03;;;23.87;38.52
17521;BME280;8878;-33.370;-70.552;2023-01-28T04:52:57;91832.38;;;23.72;38.21
17521;BME280;8878;-33.370;-70.552;2023-01-28T04:55:27;91832.78;;;23.94;39.02
17521;BME280;8878;-33.370;-70.552;2023-01-28T04:57:56;91822.34;;;23.92;38.27
17521;BME280;8878;-33.370;-70.552;2023-01-28T05:00:27;91821.00;;;23.63;38.27
17521;BME280;8878;-33.370;-70.552;2023-01-28T05:02:56;91818.13;;;23.72;37.90
17521;BME280;8878;-33.370;-70.552;2023-01-28T05:05:25;91814.84;;;23.82;37.55
17521;BME280;8878;-33.370;-70.552;2023-01-28T05:07:57;91814.56;;;23.87;39.49
17521;BME280;8878;-33.370;-70.552;2023-01-28T05:10:27;91802.50;;;23.81;40.14
17521;BME280;8878;-33.370;-70.552;2023-01-28T05:12:56;91802.59;;;23.85;39.50
17521;BME280;8878;-33.370;-70.552;2023-01-28T05:15:25;91807.25;;;23.68;40.52
17521;BME280;8878;-33.370;-70.552;2023-01-28T05:17:55;91803.38;;;23.66;39.62
17521;BME280;8878;-33.370;-70.552;2023-01-28T05:20:24;91798.69;;;23.63;39.46
17521;BME280;8878;-33.370;-70.552;2023-01-28T05:22:55;91793.59;;;23.58;39.40
17521;BME280;8878;-33.370;-70.552;2023-01-28T05:25:24;91786.56;;;23.53;39.10
17521;BME280;8878;-33.370;-70.552;2023-01-28T05:27:54;91784.53;;;23.66;39.00
17521;BME280;8878;-33.370;-70.552;2023-01-28T05:30:23;91781.09;;;23.50;39.31
17521;BME280;8878;-33.370;-70.552;2023-01-28T05:32:55;91780.88;;;23.23;39.06
17521;BME280;8878;-33.370;-70.552;2023-01-28T05:35:24;91774.69;;;23.38;38.50
17521;BME280;8878;-33.370;-70.552;2023-01-28T05:37:55;91766.72;;;23.61;38.51
17521;BME280;8878;-33.370;-70.552;2023-01-28T05:40:25;91765.38;;;23.71;38.86
17521;BME280;8878;-33.370;-70.552;2023-01-28T05:42:54;91774.59;;;23.70;39.01
17521;BME280;8878;-33.370;-70.552;2023-01-28T05:45:23;91764.44;;;23.83;38.90
17521;BME280;8878;-33.370;-70.552;2023-01-28T05:47:53;91764.38;;;23.79;39.42
17521;BME280;8878;-33.370;-70.552;2023-01-28T05:50:22;91755.72;;;23.70;39.45
17521;BME280;8878;-33.370;-70.552;2023-01-28T05:52:52;91758.59;;;23.58;40.26
17521;BME280;8878;-33.370;-70.552;2023-01-28T05:55:23;91756.94;;;23.53;40.74
17521;BME280;8878;-33.370;-70.552;2023-01-28T05:57:52;91750.59;;;23.46;40.30
17521;BME280;8878;-33.370;-70.552;2023-01-28T06:00:23;91748.38;;;23.48;40.25
17521;BME280;8878;-33.370;-70.552;2023-01-28T06:02:52;91749.22;;;23.52;40.78
17521;BME280;8878;-33.370;-70.552;2023-01-28T06:05:22;91744.56;;;23.33;41.48
17521;BME280;8878;-33.370;-70.552;2023-01-28T06:07:51;91749.03;;;23.25;40.62
17521;BME280;8878;-33.370;-70.552;2023-01-28T06:10:22;91743.22;;;23.23;41.02
17521;BME280;8878;-33.370;-70.552;2023-01-28T06:12:51;91745.66;;;23.28;40.89
17521;BME280;8878;-33.370;-70.552;2023-01-28T06:15:21;91745.91;;;23.23;41.83
17521;BME280;8878;-33.370;-70.552;2023-01-28T06:17:50;91742.22;;;23.12;42.79
17521;BME280;8878;-33.370;-70.552;2023-01-28T06:20:20;91740.34;;;22.97;42.75
17521;BME280;8878;-33.370;-70.552;2023-01-28T06:22:51;91744.59;;;22.98;41.99
17521;BME280;8878;-33.370;-70.552;2023-01-28T06:25:22;91743.53;;;23.02;41.50
17521;BME280;8878;-33.370;-70.552;2023-01-28T06:27:52;91745.59;;;23.09;41.76
17521;BME280;8878;-33.370;-70.552;2023-01-28T06:30:21;91730.88;;;23.03;41.62
17521;BME280;8878;-33.370;-70.552;2023-01-28T06:32:54;91742.00;;;23.01;41.98
17521;BME280;8878;-33.370;-70.552;2023-01-28T06:35:23;91739.91;;;22.95;42.02
17521;BME280;8878;-33.370;-70.552;2023-01-28T06:37:53;91727.03;;;22.85;42.17
17521;BME280;8878;-33.370;-70.552;2023-01-28T06:40:24;91729.38;;;22.86;43.07
17521;BME280;8878;-33.370;-70.552;2023-01-28T06:42:53;91729.00;;;22.88;42.45
17521;BME280;8878;-33.370;-70.552;2023-01-28T06:45:22;91724.97;;;22.78;42.95
17521;BME280;8878;-33.370;-70.552;2023-01-28T06:47:51;91733.09;;;22.82;43.30
17521;BME280;8878;-33.370;-70.552;2023-01-28T06:50:21;91728.84;;;22.81;42.97
17521;BME280;8878;-33.370;-70.552;2023-01-28T06:52:50;91726.09;;;22.77;42.94
17521;BME280;8878;-33.370;-70.552;2023-01-28T06:55:19;91721.84;;;22.76;43.17
17521;BME280;8878;-33.370;-70.552;2023-01-28T06:57:50;91721.31;;;22.86;43.46
17521;BME280;8878;-33.370;-70.552;2023-01-28T07:00:20;91720.38;;;22.98;42.25
17521;BME280;8878;-33.370;-70.552;2023-01-28T07:02:49;91722.38;;;23.01;42.41
17521;BME280;8878;-33.370;-70.552;2023-01-28T07:05:18;91720.47;;;23.01;42.75
17521;BME280;8878;-33.370;-70.552;2023-01-28T07:07:48;91719.69;;;23.01;42.40
17521;BME280;8878;-33.370;-70.552;2023-01-28T07:10:17;91715.25;;;23.09;41.27
17521;BME280;8878;-33.370;-70.552;2023-01-28T07:12:46;91729.59;;;23.16;40.81
17521;BME280;8878;-33.370;-70.552;2023-01-28T07:15:18;91725.69;;;23.29;40.01
17521;BME280;8878;-33.370;-70.552;2023-01-28T07:17:47;91725.53;;;23.41;38.67
17521;BME280;8878;-33.370;-70.552;2023-01-28T07:20:17;91718.88;;;23.35;40.82
17521;BME280;8878;-33.370;-70.552;2023-01-28T07:22:46;91721.41;;;23.28;41.02
17521;BME280;8878;-33.370;-70.552;2023-01-28T07:25:15;91720.16;;;23.22;41.00
17521;BME280;8878;-33.370;-70.552;2023-01-28T07:27:49;91724.75;;;23.22;40.46
17521;BME280;8878;-33.370;-70.552;2023-01-28T07:30:20;91726.16;;;23.16;41.01
17521;BME280;8878;-33.370;-70.552;2023-01-28T07:32:53;91726.22;;;23.19;40.72
17521;BME280;8878;-33.370;-70.552;2023-01-28T07:35:23;91721.19;;;23.18;40.74
17521;BME280;8878;-33.370;-70.552;2023-01-28T07:37:54;91729.06;;;23.07;41.37
17521;BME280;8878;-33.370;-70.552;2023-01-28T07:40:24;91726.91;;;22.97;41.68
17521;BME280;8878;-33.370;-70.552;2023-01-28T07:42:53;91726.41;;;22.91;42.43
17521;BME280;8878;-33.370;-70.552;2023-01-28T07:45:25;91724.63;;;22.80;42.73
17521;BME280;8878;-33.370;-70.552;2023-01-28T07:47:56;91725.03;;;22.82;42.45
17521;BME280;8878;-33.370;-70.552;2023-01-28T07:50:26;91725.19;;;22.89;42.18
17521;BME280;8878;-33.370;-70.552;2023-01-28T07:52:56;91726.25;;;22.84;42.09
17521;BME280;8878;-33.370;-70.552;2023-01-28T07:55:26;91739.88;;;22.76;41.80
17521;BME280;8878;-33.370;-70.552;2023-01-28T07:57:57;91726.00;;;22.74;41.62
17521;BME280;8878;-33.370;-70.552;2023-01-28T08:00:29;91730.94;;;22.72;42.00
17521;BME280;8878;-33.370;-70.552;2023-01-28T08:02:59;91726.53;;;22.63;42.17
17521;BME280;8878;-33.370;-70.552;2023-01-28T08:05:37;91735.19;;;22.57;43.00
17521;BME280;8878;-33.370;-70.552;2023-01-28T08:08:09;91732.97;;;22.59;42.62
17521;BME280;8878;-33.370;-70.552;2023-01-28T08:10:39;91736.59;;;22.51;42.33
17521;BME280;8878;-33.370;-70.552;2023-01-28T08:13:10;91740.41;;;22.65;42.13
17521;BME280;8878;-33.370;-70.552;2023-01-28T08:15:41;91742.22;;;22.61;42.21
17521;BME280;8878;-33.370;-70.552;2023-01-28T08:18:12;91741.44;;;22.45;42.54
17521;BME280;8878;-33.370;-70.552;2023-01-28T08:20:42;91735.47;;;22.20;44.13
17521;BME280;8878;-33.370;-70.552;2023-01-28T08:23:14;91744.06;;;22.26;44.07
17521;BME280;8878;-33.370;-70.552;2023-01-28T08:25:44;91736.34;;;22.40;43.50
17521;BME280;8878;-33.370;-70.552;2023-01-28T08:28:14;91735.22;;;22.41;43.88
17521;BME280;8878;-33.370;-70.552;2023-01-28T08:30:46;91739.91;;;22.44;42.98
17521;BME280;8878;-33.370;-70.552;2023-01-28T08:33:16;91745.28;;;22.44;43.23
17521;BME280;8878;-33.370;-70.552;2023-01-28T08:35:46;91739.38;;;22.39;43.03
17521;BME280;8878;-33.370;-70.552;2023-01-28T08:38:16;91742.31;;;22.34;43.68
17521;BME280;8878;-33.370;-70.552;2023-01-28T08:40:46;91747.44;;;22.39;43.38
17521;BME280;8878;-33.370;-70.552;2023-01-28T08:43:16;91749.59;;;22.33;43.44
17521;BME280;8878;-33.370;-70.552;2023-01-28T08:45:47;91748.13;;;22.36;43.17
17521;BME280;8878;-33.370;-70.552;2023-01-28T08:48:19;91753.00;;;22.30;42.73
17521;BME280;8878;-33.370;-70.552;2023-01-28T08:50:48;91747.16;;;22.12;43.69
17521;BME280;8878;-33.370;-70.552;2023-01-28T08:53:19;91759.63;;;22.05;43.06
17521;BME280;8878;-33.370;-70.552;2023-01-28T08:55:49;91755.66;;;21.99;42.41
17521;BME280;8878;-33.370;-70.552;2023-01-28T08:58:18;91754.44;;;22.12;42.28
17521;BME280;8878;-33.370;-70.552;2023-01-28T09:00:49;91756.09;;;22.01;41.71
17521;BME280;8878;-33.370;-70.552;2023-01-28T09:03:20;91757.47;;;22.10;42.22
17521;BME280;8878;-33.370;-70.552;2023-01-28T09:05:49;91762.00;;;22.06;41.71
17521;BME280;8878;-33.370;-70.552;2023-01-28T09:08:18;91766.09;;;22.16;41.05
17521;BME280;8878;-33.370;-70.552;2023-01-28T09:10:47;91761.06;;;22.30;40.42
17521;BME280;8878;-33.370;-70.552;2023-01-28T09:13:18;91762.59;;;22.31;40.45
17521;BME280;8878;-33.370;-70.552;2023-01-28T09:15:50;91766.16;;;22.35;40.31
17521;BME280;8878;-33.370;-70.552;2023-01-28T09:18:20;91762.34;;;22.20;40.59
17521;BME280;8878;-33.370;-70.552;2023-01-28T09:20:50;91771.78;;;22.14;41.43
17521;BME280;8878;-33.370;-70.552;2023-01-28T09:23:19;91765.19;;;22.12;41.19
17521;BME280;8878;-33.370;-70.552;2023-01-28T09:25:48;91770.50;;;22.08;41.57
17521;BME280;8878;-33.370;-70.552;2023-01-28T09:28:17;91769.78;;;22.11;41.51
17521;BME280;8878;-33.370;-70.552;2023-01-28T09:30:48;91769.19;;;22.18;41.32
17521;BME280;8878;-33.370;-70.552;2023-01-28T09:33:18;91776.72;;;22.12;41.76
17521;BME280;8878;-33.370;-70.552;2023-01-28T09:35:47;91781.72;;;21.98;42.02
17521;BME280;8878;-33.370;-70.552;2023-01-28T09:38:16;91788.09;;;21.94;41.28
17521;BME280;8878;-33.370;-70.552;2023-01-28T09:40:46;91788.44;;;21.92;41.70
17521;BME280;8878;-33.370;-70.552;2023-01-28T09:43:34;91789.19;;;22.05;40.76
17521;BME280;8878;-33.370;-70.552;2023-01-28T09:46:11;91789.81;;;21.86;40.30
17521;BME280;8878;-33.370;-70.552;2023-01-28T09:48:43;91793.97;;;22.11;40.23
17521;BME280;8878;-33.370;-70.552;2023-01-28T09:51:25;91799.38;;;22.27;41.12
17521;BME280;8878;-33.370;-70.552;2023-01-28T09:53:59;91797.69;;;22.07;41.41
17521;BME280;8878;-33.370;-70.552;2023-01-28T09:56:35;91795.19;;;22.14;42.07
17521;BME280;8878;-33.370;-70.552;2023-01-28T09:59:15;91796.94;;;22.22;42.50
17521;BME280;8878;-33.370;-70.552;2023-01-28T10:01:53;91795.53;;;22.12;43.29
17521;BME280;8878;-33.370;-70.552;2023-01-28T10:04:34;91801.66;;;21.97;43.39
17521;BME280;8878;-33.370;-70.552;2023-01-28T10:07:22;91812.69;;;21.96;43.34
17521;BME280;8878;-33.370;-70.552;2023-01-28T10:10:02;91815.53;;;21.99;43.55
17521;BME280;8878;-33.370;-70.552;2023-01-28T10:12:59;91806.38;;;21.88;42.69
17521;BME280;8878;-33.370;-70.552;2023-01-28T10:15:49;91803.94;;;21.83;42.82
17521;BME280;8878;-33.370;-70.552;2023-01-28T10:18:29;91808.13;;;21.96;42.69
17521;BME280;8878;-33.370;-70.552;2023-01-28T10:21:05;91818.06;;;21.96;42.58
17521;BME280;8878;-33.370;-70.552;2023-01-28T10:23:48;91828.63;;;22.01;43.46
17521;BME280;8878;-33.370;-70.552;2023-01-28T10:26:22;91824.94;;;21.93;42.78
17521;BME280;8878;-33.370;-70.552;2023-01-28T10:28:57;91825.19;;;21.88;43.43
17521;BME280;8878;-33.370;-70.552;2023-01-28T10:31:31;91827.50;;;21.89;43.82
17521;BME280;8878;-33.370;-70.552;2023-01-28T10:34:07;91831.91;;;21.82;44.59
17521;BME280;8878;-33.370;-70.552;2023-01-28T10:36:37;91835.94;;;21.76;45.30
17521;BME280;8878;-33.370;-70.552;2023-01-28T10:39:07;91829.66;;;21.84;44.58
17521;BME280;8878;-33.370;-70.552;2023-01-28T10:41:38;91830.56;;;21.88;44.41
17521;BME280;8878;-33.370;-70.552;2023-01-28T10:44:11;91840.94;;;22.02;43.59
17521;BME280;8878;-33.370;-70.552;2023-01-28T10:46:44;91836.53;;;22.09;43.46
17521;BME280;8878;-33.370;-70.552;2023-01-28T10:49:20;91837.75;;;22.27;42.66
17521;BME280;8878;-33.370;-70.552;2023-01-28T10:51:52;91851.59;;;22.57;42.97
17521;BME280;8878;-33.370;-70.552;2023-01-28T10:54:22;91843.56;;;22.73;42.56
17521;BME280;8878;-33.370;-70.552;2023-01-28T10:56:53;91853.00;;;22.83;42.75
17521;BME280;8878;-33.370;-70.552;2023-01-28T10:59:26;91845.28;;;22.81;42.71
17521;BME280;8878;-33.370;-70.552;2023-01-28T11:01:58;91851.06;;;22.67;42.72
17521;BME280;8878;-33.370;-70.552;2023-01-28T11:04:32;91861.22;;;22.74;42.14
17521;BME280;8878;-33.370;-70.552;2023-01-28T11:07:02;91861.81;;;22.67;41.43
17521;BME280;8878;-33.370;-70.552;2023-01-28T11:09:34;91853.88;;;22.87;41.23
17521;BME280;8878;-33.370;-70.552;2023-01-28T11:12:11;91864.88;;;22.97;40.73
17521;BME280;8878;-33.370;-70.552;2023-01-28T11:14:49;91866.09;;;23.00;40.63
17521;BME280;8878;-33.370;-70.552;2023-01-28T11:17:22;91865.41;;;22.87;41.17
17521;BME280;8878;-33.370;-70.552;2023-01-28T11:19:55;91873.16;;;22.61;41.60
17521;BME280;8878;-33.370;-70.552;2023-01-28T11:22:30;91867.91;;;22.64;41.69
17521;BME280;8878;-33.370;-70.552;2023-01-28T11:25:03;91875.47;;;22.75;41.25
17521;BME280;8878;-33.370;-70.552;2023-01-28T11:27:34;91871.31;;;22.77;41.36
17521;BME280;8878;-33.370;-70.552;2023-01-28T11:30:04;91877.09;;;22.95;41.08
17521;BME280;8878;-33.370;-70.552;2023-01-28T11:32:33;91881.97;;;23.21;40.56
17521;BME280;8878;-33.370;-70.552;2023-01-28T11:35:05;91883.28;;;23.46;40.42
17521;BME280;8878;-33.370;-70.552;2023-01-28T11:37:35;91889.47;;;23.62;39.55
17521;BME280;8878;-33.370;-70.552;2023-01-28T11:40:16;91883.66;;;23.45;39.99
17521;BME280;8878;-33.370;-70.552;2023-01-28T11:42:47;91887.25;;;23.49;40.00
17521;BME280;8878;-33.370;-70.552;2023-01-28T11:45:18;91887.22;;;23.64;39.23
17521;BME280;8878;-33.370;-70.552;2023-01-28T11:47:58;91891.97;;;23.71;39.10
17521;BME280;8878;-33.370;-70.552;2023-01-28T11:50:41;91884.47;;;23.99;38.11
17521;BME280;8878;-33.370;-70.552;2023-01-28T11:53:32;91891.09;;;24.21;38.00
17521;BME280;8878;-33.370;-70.552;2023-01-28T11:56:18;91883.69;;;24.37;37.93
17521;BME280;8878;-33.370;-70.552;2023-01-28T11:58:59;91884.72;;;24.52;37.57
17521;BME280;8878;-33.370;-70.552;2023-01-28T12:01:39;91884.50;;;24.61;37.37
17521;BME280;8878;-33.370;-70.552;2023-01-28T12:04:20;91884.06;;;24.78;37.32
17521;BME280;8878;-33.370;-70.552;2023-01-28T12:07:05;91879.84;;;25.00;36.54
17521;BME280;8878;-33.370;-70.552;2023-01-28T12:09:46;91884.56;;;25.06;37.25
17521;BME280;8878;-33.370;-70.552;2023-01-28T12:18:45;91876.69;;;25.47;35.31
17521;BME280;8878;-33.370;-70.552;2023-01-28T12:21:29;91877.94;;;25.53;35.82
17521;BME280;8878;-33.370;-70.552;2023-01-28T12:24:15;91885.03;;;25.61;35.34
17521;BME280;8878;-33.370;-70.552;2023-01-28T12:26:54;91881.38;;;25.76;34.67
17521;BME280;8878;-33.370;-70.552;2023-01-28T12:29:34;91875.72;;;25.85;34.79
17521;BME280;8878;-33.370;-70.552;2023-01-28T12:35:27;91891.97;;;26.18;33.87
17521;BME280;8878;-33.370;-70.552;2023-01-28T12:38:07;91886.41;;;26.34;32.96
17521;BME280;8878;-33.370;-70.552;2023-01-28T12:40:48;91885.03;;;26.50;32.70
17521;BME280;8878;-33.370;-70.552;2023-01-28T12:43:24;91885.19;;;26.65;32.51
17521;BME280;8878;-33.370;-70.552;2023-01-28T12:45:58;91886.41;;;26.34;31.48
17521;BME280;8878;-33.370;-70.552;2023-01-28T12:48:32;91890.44;;;26.50;32.01
17521;BME280;8878;-33.370;-70.552;2023-01-28T12:51:09;91890.66;;;26.35;33.00
17521;BME280;8878;-33.370;-70.552;2023-01-28T12:53:44;91892.09;;;26.25;32.73
17521;BME280;8878;-33.370;-70.552;2023-01-28T12:56:17;91894.00;;;26.25;32.90
17521;BME280;8878;-33.370;-70.552;2023-01-28T12:58:52;91892.91;;;25.99;33.74
17521;BME280;8878;-33.370;-70.552;2023-01-28T13:01:26;91899.47;;;25.72;33.49
17521;BME280;8878;-33.370;-70.552;2023-01-28T13:04:02;91892.25;;;26.09;33.24
17521;BME280;8878;-33.370;-70.552;2023-01-28T13:06:39;91898.06;;;26.11;33.49
17521;BME280;8878;-33.370;-70.552;2023-01-28T13:09:13;91905.41;;;26.11;33.03
17521;BME280;8878;-33.370;-70.552;2023-01-28T13:11:47;91893.19;;;26.24;33.65
17521;BME280;8878;-33.370;-70.552;2023-01-28T13:14:18;91905.53;;;26.51;33.25
17521;BME280;8878;-33.370;-70.552;2023-01-28T13:16:53;91903.03;;;26.36;33.71
17521;BME280;8878;-33.370;-70.552;2023-01-28T13:19:24;91901.19;;;26.43;33.20
17521;BME280;8878;-33.370;-70.552;2023-01-28T13:21:53;91910.19;;;26.21;33.59
17521;BME280;8878;-33.370;-70.552;2023-01-28T13:24:30;91909.16;;;26.03;34.06